sensor_id;sensor_type;location;lat;lon;timestamp;P1;durP1;ratioP1;P2;durP2;ratioP2
7076;SDS011;3579;48.956;9.154;2024-02-26T00:01:53;1.20;;;1.10;;
7076;SDS011;3579;48.956;9.154;2024-02-26T00:04:19;1.57;;;1.20;;
7076;SDS011;3579;48.956;9.154;2024-02-26T00:06:47;1.30;;;1.20;;
7076;SDS011;3579;48.956;9.154;2024-02-26T00:09:15;1.43;;;1.17;;
7076;SDS011;3579;48.956;9.154;2024-02-26T00:11:41;1.20;;;1.10;;
7076;SDS011;3579;48.956;9.154;2024-02-26T00:14:07;1.10;;;1.00;;
7076;SDS011;3579;48.956;9.154;2024-02-26T00:16:33;1.20;;;1.10;;
7076;SDS011;3579;48.956;9.154;2024-02-26T00:18:59;1.10;;;1.00;;
7076;SDS011;3579;48.956;9.154;2024-02-26T00:21:25;1.10;;;1.00;;
7076;SDS011;3579;48.956;9.154;2024-02-26T00:23:52;1.20;;;1.10;;
7076;SDS011;3579;48.956;9.154;2024-02-26T00:26:18;1.10;;;1.00;;
7076;SDS011;3579;48.956;9.154;2024-02-26T00:28:44;1.10;;;1.00;;
7076;SDS011;3579;48.956;9.154;2024-02-26T00:31:10;1.10;;;1.00;;
7076;SDS011;3579;48.956;9.154;2024-02-26T00:33:37;1.20;;;1.10;;
7076;SDS011;3579;48.956;9.154;2024-02-26T00:36:04;1.10;;;1.00;;
7076;SDS011;3579;48.956;9.154;2024-02-26T00:38:30;1.07;;;0.97;;
7076;SDS011;3579;48.956;9.154;2024-02-26T00:40:56;1.10;;;1.00;;
7076;SDS011;3579;48.956;9.154;2024-02-26T00:43:22;1.10;;;1.00;;
7076;SDS011;3579;48.956;9.154;2024-02-26T00:45:48;1.37;;;1.17;;
7076;SDS011;3579;48.956;9.154;2024-02-26T00:48:14;1.10;;;1.00;;
7076;SDS011;3579;48.956;9.154;2024-02-26T00:50:40;1.03;;;0.93;;
7076;SDS011;3579;48.956;9.154;2024-02-26T00:53:06;1.27;;;1.10;;
7076;SDS011;3579;48.956;9.154;2024-02-26T00:55:34;1.20;;;1.10;;
7076;SDS011;3579;48.956;9.154;2024-02-26T00:58:00;1.13;;;1.03;;
7076;SDS011;3579;48.956;9.154;2024-02-26T01:00:26;1.17;;;1.00;;
7076;SDS011;3579;48.956;9.154;2024-02-26T01:02:52;1.10;;;1.00;;
7076;SDS011;3579;48.956;9.154;2024-02-26T01:05:18;1.03;;;0.93;;
7076;SDS011;3579;48.956;9.154;2024-02-26T01:07:44;1.10;;;1.00;;
7076;SDS011;3579;48.956;9.154;2024-02-26T01:10:10;1.20;;;1.10;;
7076;SDS011;3579;48.956;9.154;2024-02-26T01:12:36;1.20;;;1.10;;
7076;SDS011;3579;48.956;9.154;2024-02-26T01:15:02;1.20;;;1.10;;
7076;SDS011;3579;48.956;9.154;2024-02-26T01:17:29;1.10;;;1.00;;
7076;SDS011;3579;48.956;9.154;2024-02-26T01:19:55;1.10;;;1.00;;
7076;SDS011;3579;48.956;9.154;2024-02-26T01:22:22;1.20;;;1.10;;
7076;SDS011;3579;48.956;9.154;2024-02-26T01:24:48;1.13;;;1.00;;
7076;SDS011;3579;48.956;9.154;2024-02-26T01:27:14;1.40;;;1.00;;
7076;SDS011;3579;48.956;9.154;2024-02-26T01:29:41;1.20;;;1.10;;
7076;SDS011;3579;48.956;9.154;2024-02-26T01:32:07;1.10;;;1.00;;
7076;SDS011;3579;48.956;9.154;2024-02-26T01:34:33;1.10;;;1.00;;
7076;SDS011;3579;48.956;9.154;2024-02-26T01:37:00;0.90;;;0.90;;
7076;SDS011;3579;48.956;9.154;2024-02-26T01:39:26;1.20;;;1.10;;
7076;SDS011;3579;48.956;9.154;2024-02-26T01:41:54;1.20;;;1.10;;
7076;SDS011;3579;48.956;9.154;2024-02-26T01:44:21;1.10;;;1.00;;
7076;SDS011;3579;48.956;9.154;2024-02-26T01:46:47;1.30;;;1.20;;
7076;SDS011;3579;48.956;9.154;2024-02-26T01:49:13;1.20;;;1.10;;
7076;SDS011;3579;48.956;9.154;2024-02-26T01:51:41;1.67;;;1.20;;
7076;SDS011;3579;48.956;9.154;2024-02-26T01:54:08;1.00;;;0.90;;
7076;SDS011;3579;48.956;9.154;2024-02-26T01:56:35;1.20;;;1.10;;
7076;SDS011;3579;48.956;9.154;2024-02-26T01:59:03;1.17;;;1.07;;
7076;SDS011;3579;48.956;9.154;2024-02-26T02:01:31;1.03;;;0.93;;
7076;SDS011;3579;48.956;9.154;2024-02-26T02:03:59;1.10;;;1.00;;
7076;SDS011;3579;48.956;9.154;2024-02-26T02:06:25;1.10;;;1.00;;
7076;SDS011;3579;48.956;9.154;2024-02-26T02:08:54;1.30;;;1.20;;
7076;SDS011;3579;48.956;9.154;2024-02-26T02:11:20;1.27;;;1.10;;
7076;SDS011;3579;48.956;9.154;2024-02-26T02:13:47;1.10;;;1.00;;
7076;SDS011;3579;48.956;9.154;2024-02-26T02:16:13;1.00;;;0.90;;
7076;SDS011;3579;48.956;9.154;2024-02-26T02:18:39;0.90;;;0.90;;
7076;SDS011;3579;48.956;9.154;2024-02-26T02:21:05;1.00;;;0.90;;
7076;SDS011;3579;48.956;9.154;2024-02-26T02:23:31;1.57;;;1.23;;
7076;SDS011;3579;48.956;9.154;2024-02-26T02:25:57;1.10;;;1.00;;
7076;SDS011;3579;48.956;9.154;2024-02-26T02:28:25;1.33;;;1.20;;
7076;SDS011;3579;48.956;9.154;2024-02-26T02:30:52;1.20;;;1.10;;
7076;SDS011;3579;48.956;9.154;2024-02-26T02:33:20;1.10;;;1.00;;
7076;SDS011;3579;48.956;9.154;2024-02-26T02:35:47;1.20;;;1.10;;
7076;SDS011;3579;48.956;9.154;2024-02-26T02:38:14;1.17;;;1.00;;
7076;SDS011;3579;48.956;9.154;2024-02-26T02:40:40;1.17;;;1.07;;
7076;SDS011;3579;48.956;9.154;2024-02-26T02:43:06;1.13;;;1.03;;
7076;SDS011;3579;48.956;9.154;2024-02-26T02:45:32;1.20;;;1.10;;
7076;SDS011;3579;48.956;9.154;2024-02-26T02:47:58;1.10;;;1.00;;
7076;SDS011;3579;48.956;9.154;2024-02-26T02:50:24;1.10;;;1.00;;
7076;SDS011;3579;48.956;9.154;2024-02-26T02:52:50;1.10;;;1.00;;
7076;SDS011;3579;48.956;9.154;2024-02-26T02:55:17;1.20;;;1.10;;
7076;SDS011;3579;48.956;9.154;2024-02-26T02:57:44;1.00;;;1.00;;
7076;SDS011;3579;48.956;9.154;2024-02-26T03:00:10;1.10;;;1.00;;
7076;SDS011;3579;48.956;9.154;2024-02-26T03:02:37;1.10;;;1.00;;
7076;SDS011;3579;48.956;9.154;2024-02-26T03:05:03;1.27;;;1.10;;
7076;SDS011;3579;48.956;9.154;2024-02-26T03:07:29;0.90;;;0.90;;
7076;SDS011;3579;48.956;9.154;2024-02-26T03:09:55;1.03;;;0.93;;
7076;SDS011;3579;48.956;9.154;2024-02-26T03:12:22;1.10;;;1.00;;
7076;SDS011;3579;48.956;9.154;2024-02-26T03:14:48;1.10;;;1.00;;
7076;SDS011;3579;48.956;9.154;2024-02-26T03:17:14;1.20;;;1.10;;
7076;SDS011;3579;48.956;9.154;2024-02-26T03:19:40;1.00;;;0.90;;
7076;SDS011;3579;48.956;9.154;2024-02-26T03:22:06;1.00;;;0.90;;
7076;SDS011;3579;48.956;9.154;2024-02-26T03:24:32;1.10;;;1.00;;
7076;SDS011;3579;48.956;9.154;2024-02-26T03:26:59;1.10;;;1.00;;
7076;SDS011;3579;48.956;9.154;2024-02-26T03:29:25;1.10;;;1.00;;
7076;SDS011;3579;48.956;9.154;2024-02-26T03:31:51;1.20;;;1.10;;
7076;SDS011;3579;48.956;9.154;2024-02-26T03:34:17;0.90;;;0.90;;
7076;SDS011;3579;48.956;9.154;2024-02-26T03:36:45;1.10;;;1.00;;
7076;SDS011;3579;48.956;9.154;2024-02-26T03:39:11;0.90;;;0.90;;
7076;SDS011;3579;48.956;9.154;2024-02-26T03:41:37;1.27;;;1.17;;
7076;SDS011;3579;48.956;9.154;2024-02-26T03:44:03;1.07;;;0.97;;
7076;SDS011;3579;48.956;9.154;2024-02-26T03:46:29;1.13;;;1.03;;
7076;SDS011;3579;48.956;9.154;2024-02-26T03:48:55;1.20;;;1.10;;
7076;SDS011;3579;48.956;9.154;2024-02-26T03:51:21;1.13;;;1.03;;
7076;SDS011;3579;48.956;9.154;2024-02-26T03:53:47;1.20;;;1.10;;
7076;SDS011;3579;48.956;9.154;2024-02-26T03:56:13;1.60;;;1.20;;
7076;SDS011;3579;48.956;9.154;2024-02-26T03:58:39;1.10;;;0.90;;
7076;SDS011;3579;48.956;9.154;2024-02-26T04:01:08;1.30;;;1.10;;
7076;SDS011;3579;48.956;9.154;2024-02-26T04:03:34;1.00;;;0.90;;
7076;SDS011;3579;48.956;9.154;2024-02-26T04:06:01;0.97;;;0.90;;
7076;SDS011;3579;48.956;9.154;2024-02-26T04:08:28;1.03;;;0.93;;
7076;SDS011;3579;48.956;9.154;2024-02-26T04:10:54;1.20;;;1.00;;
7076;SDS011;3579;48.956;9.154;2024-02-26T04:13:20;1.20;;;1.10;;
7076;SDS011;3579;48.956;9.154;2024-02-26T04:15:46;0.97;;;0.97;;
7076;SDS011;3579;48.956;9.154;2024-02-26T04:18:12;1.20;;;1.10;;
7076;SDS011;3579;48.956;9.154;2024-02-26T04:20:39;1.10;;;1.00;;
7076;SDS011;3579;48.956;9.154;2024-02-26T04:23:07;1.10;;;1.00;;
7076;SDS011;3579;48.956;9.154;2024-02-26T04:25:33;1.00;;;0.90;;
7076;SDS011;3579;48.956;9.154;2024-02-26T04:27:59;1.10;;;1.00;;
7076;SDS011;3579;48.956;9.154;2024-02-26T04:30:25;1.07;;;0.97;;
7076;SDS011;3579;48.956;9.154;2024-02-26T04:32:51;1.10;;;1.00;;
7076;SDS011;3579;48.956;9.154;2024-02-26T04:35:17;1.10;;;1.00;;
7076;SDS011;3579;48.956;9.154;2024-02-26T04:37:43;1.10;;;1.00;;
7076;SDS011;3579;48.956;9.154;2024-02-26T04:40:10;1.10;;;1.00;;
7076;SDS011;3579;48.956;9.154;2024-02-26T04:42:36;0.90;;;0.90;;
7076;SDS011;3579;48.956;9.154;2024-02-26T04:45:02;1.20;;;1.10;;
7076;SDS011;3579;48.956;9.154;2024-02-26T04:47:28;1.10;;;1.00;;
7076;SDS011;3579;48.956;9.154;2024-02-26T04:49:55;1.10;;;1.00;;
7076;SDS011;3579;48.956;9.154;2024-02-26T04:52:21;0.93;;;0.93;;
7076;SDS011;3579;48.956;9.154;2024-02-26T04:54:47;1.23;;;1.10;;
7076;SDS011;3579;48.956;9.154;2024-02-26T04:57:13;1.10;;;1.00;;
7076;SDS011;3579;48.956;9.154;2024-02-26T04:59:39;1.10;;;1.00;;
7076;SDS011;3579;48.956;9.154;2024-02-26T05:02:07;1.30;;;1.20;;
7076;SDS011;3579;48.956;9.154;2024-02-26T05:04:33;1.13;;;1.03;;
7076;SDS011;3579;48.956;9.154;2024-02-26T05:06:59;1.10;;;1.00;;
7076;SDS011;3579;48.956;9.154;2024-02-26T05:09:26;1.00;;;0.90;;
7076;SDS011;3579;48.956;9.154;2024-02-26T05:11:52;1.10;;;1.00;;
7076;SDS011;3579;48.956;9.154;2024-02-26T05:14:18;1.03;;;1.00;;
7076;SDS011;3579;48.956;9.154;2024-02-26T05:16:44;1.20;;;1.10;;
7076;SDS011;3579;48.956;9.154;2024-02-26T05:19:11;1.40;;;1.30;;
7076;SDS011;3579;48.956;9.154;2024-02-26T05:21:36;0.90;;;0.90;;
7076;SDS011;3579;48.956;9.154;2024-02-26T05:24:03;1.10;;;1.00;;
7076;SDS011;3579;48.956;9.154;2024-02-26T05:26:29;1.17;;;1.07;;
7076;SDS011;3579;48.956;9.154;2024-02-26T05:28:55;1.20;;;1.10;;
7076;SDS011;3579;48.956;9.154;2024-02-26T05:31:25;0.93;;;0.90;;
7076;SDS011;3579;48.956;9.154;2024-02-26T05:33:52;1.20;;;1.10;;
7076;SDS011;3579;48.956;9.154;2024-02-26T05:36:19;1.10;;;1.00;;
7076;SDS011;3579;48.956;9.154;2024-02-26T05:38:47;1.40;;;1.00;;
7076;SDS011;3579;48.956;9.154;2024-02-26T05:41:17;1.30;;;1.10;;
7076;SDS011;3579;48.956;9.154;2024-02-26T05:43:51;1.10;;;1.00;;
7076;SDS011;3579;48.956;9.154;2024-02-26T05:46:17;1.10;;;1.00;;
7076;SDS011;3579;48.956;9.154;2024-02-26T05:48:45;0.90;;;0.90;;
7076;SDS011;3579;48.956;9.154;2024-02-26T05:51:15;1.20;;;1.10;;
7076;SDS011;3579;48.956;9.154;2024-02-26T05:53:41;1.27;;;1.17;;
7076;SDS011;3579;48.956;9.154;2024-02-26T05:56:08;1.30;;;1.00;;
7076;SDS011;3579;48.956;9.154;2024-02-26T05:58:34;1.20;;;1.10;;
7076;SDS011;3579;48.956;9.154;2024-02-26T06:01:00;1.10;;;1.00;;
7076;SDS011;3579;48.956;9.154;2024-02-26T06:03:26;1.17;;;1.07;;
7076;SDS011;3579;48.956;9.154;2024-02-26T06:05:52;1.20;;;1.10;;
7076;SDS011;3579;48.956;9.154;2024-02-26T06:08:18;1.17;;;1.07;;
7076;SDS011;3579;48.956;9.154;2024-02-26T06:10:44;1.20;;;1.10;;
7076;SDS011;3579;48.956;9.154;2024-02-26T06:13:11;1.20;;;1.10;;
7076;SDS011;3579;48.956;9.154;2024-02-26T06:15:37;1.17;;;0.97;;
7076;SDS011;3579;48.956;9.154;2024-02-26T06:18:03;1.00;;;0.90;;
7076;SDS011;3579;48.956;9.154;2024-02-26T06:20:29;1.10;;;1.00;;
7076;SDS011;3579;48.956;9.154;2024-02-26T06:22:55;1.20;;;1.10;;
7076;SDS011;3579;48.956;9.154;2024-02-26T06:25:21;0.80;;;0.80;;
7076;SDS011;3579;48.956;9.154;2024-02-26T06:27:47;1.23;;;1.10;;
7076;SDS011;3579;48.956;9.154;2024-02-26T06:30:13;1.13;;;1.03;;
7076;SDS011;3579;48.956;9.154;2024-02-26T06:32:39;1.10;;;1.00;;
7076;SDS011;3579;48.956;9.154;2024-02-26T06:35:06;1.10;;;1.00;;
7076;SDS011;3579;48.956;9.154;2024-02-26T06:37:34;1.30;;;1.20;;
7076;SDS011;3579;48.956;9.154;2024-02-26T06:40:02;1.10;;;1.00;;
7076;SDS011;3579;48.956;9.154;2024-02-26T06:42:32;1.33;;;1.10;;
7076;SDS011;3579;48.956;9.154;2024-02-26T06:44:58;1.00;;;0.90;;
7076;SDS011;3579;48.956;9.154;2024-02-26T06:47:24;1.20;;;1.10;;
7076;SDS011;3579;48.956;9.154;2024-02-26T06:49:51;1.20;;;1.10;;
7076;SDS011;3579;48.956;9.154;2024-02-26T06:52:17;1.07;;;0.90;;
7076;SDS011;3579;48.956;9.154;2024-02-26T06:54:43;0.90;;;0.90;;
7076;SDS011;3579;48.956;9.154;2024-02-26T06:57:10;1.10;;;1.00;;
7076;SDS011;3579;48.956;9.154;2024-02-26T06:59:36;1.13;;;0.93;;
7076;SDS011;3579;48.956;9.154;2024-02-26T07:02:02;1.10;;;1.00;;
7076;SDS011;3579;48.956;9.154;2024-02-26T07:04:28;1.20;;;1.10;;
7076;SDS011;3579;48.956;9.154;2024-02-26T07:06:56;1.93;;;1.20;;
7076;SDS011;3579;48.956;9.154;2024-02-26T07:09:22;1.20;;;1.10;;
7076;SDS011;3579;48.956;9.154;2024-02-26T07:11:48;1.20;;;1.10;;
7076;SDS011;3579;48.956;9.154;2024-02-26T07:14:14;1.53;;;1.10;;
7076;SDS011;3579;48.956;9.154;2024-02-26T07:16:40;0.90;;;0.90;;
7076;SDS011;3579;48.956;9.154;2024-02-26T07:19:06;1.30;;;1.03;;
7076;SDS011;3579;48.956;9.154;2024-02-26T07:21:32;1.20;;;1.10;;
7076;SDS011;3579;48.956;9.154;2024-02-26T07:23:59;1.30;;;1.00;;
7076;SDS011;3579;48.956;9.154;2024-02-26T07:26:25;4.00;;;1.20;;
7076;SDS011;3579;48.956;9.154;2024-02-26T07:28:51;1.30;;;1.20;;
7076;SDS011;3579;48.956;9.154;2024-02-26T07:31:17;1.20;;;1.10;;
7076;SDS011;3579;48.956;9.154;2024-02-26T07:33:44;1.60;;;1.20;;
7076;SDS011;3579;48.956;9.154;2024-02-26T07:36:10;1.10;;;1.00;;
7076;SDS011;3579;48.956;9.154;2024-02-26T07:38:37;1.37;;;1.10;;
7076;SDS011;3579;48.956;9.154;2024-02-26T07:41:03;1.30;;;1.20;;
7076;SDS011;3579;48.956;9.154;2024-02-26T07:43:30;0.97;;;0.90;;
7076;SDS011;3579;48.956;9.154;2024-02-26T07:45:56;1.37;;;1.20;;
7076;SDS011;3579;48.956;9.154;2024-02-26T07:48:23;1.10;;;1.00;;
7076;SDS011;3579;48.956;9.154;2024-02-26T07:50:49;3.70;;;1.17;;
7076;SDS011;3579;48.956;9.154;2024-02-26T07:53:15;1.93;;;1.00;;
7076;SDS011;3579;48.956;9.154;2024-02-26T07:55:41;1.20;;;1.10;;
7076;SDS011;3579;48.956;9.154;2024-02-26T07:58:07;1.80;;;1.13;;
7076;SDS011;3579;48.956;9.154;2024-02-26T08:00:33;2.73;;;1.20;;
7076;SDS011;3579;48.956;9.154;2024-02-26T08:02:59;2.00;;;1.10;;
7076;SDS011;3579;48.956;9.154;2024-02-26T08:05:26;2.60;;;1.10;;
7076;SDS011;3579;48.956;9.154;2024-02-26T08:07:52;1.60;;;1.10;;
7076;SDS011;3579;48.956;9.154;2024-02-26T08:10:18;2.57;;;1.10;;
7076;SDS011;3579;48.956;9.154;2024-02-26T08:12:44;1.10;;;1.00;;
7076;SDS011;3579;48.956;9.154;2024-02-26T08:15:10;1.50;;;1.10;;
7076;SDS011;3579;48.956;9.154;2024-02-26T08:17:37;1.43;;;1.10;;
7076;SDS011;3579;48.956;9.154;2024-02-26T08:20:03;1.20;;;1.10;;
7076;SDS011;3579;48.956;9.154;2024-02-26T08:22:30;1.57;;;1.10;;
7076;SDS011;3579;48.956;9.154;2024-02-26T08:24:57;1.50;;;1.00;;
7076;SDS011;3579;48.956;9.154;2024-02-26T08:27:23;3.50;;;1.00;;
7076;SDS011;3579;48.956;9.154;2024-02-26T08:29:49;3.47;;;1.23;;
7076;SDS011;3579;48.956;9.154;2024-02-26T08:32:15;2.70;;;1.00;;
7076;SDS011;3579;48.956;9.154;2024-02-26T08:34:42;1.90;;;1.00;;
7076;SDS011;3579;48.956;9.154;2024-02-26T08:37:08;1.10;;;1.00;;
7076;SDS011;3579;48.956;9.154;2024-02-26T08:39:34;2.93;;;1.00;;
7076;SDS011;3579;48.956;9.154;2024-02-26T08:42:00;2.00;;;1.20;;
7076;SDS011;3579;48.956;9.154;2024-02-26T08:44:26;3.00;;;1.30;;
7076;SDS011;3579;48.956;9.154;2024-02-26T08:46:52;2.70;;;1.40;;
7076;SDS011;3579;48.956;9.154;2024-02-26T08:49:18;1.10;;;1.00;;
7076;SDS011;3579;48.956;9.154;2024-02-26T08:51:44;2.10;;;1.10;;
7076;SDS011;3579;48.956;9.154;2024-02-26T08:54:11;1.10;;;1.00;;
7076;SDS011;3579;48.956;9.154;2024-02-26T08:56:37;1.50;;;1.13;;
7076;SDS011;3579;48.956;9.154;2024-02-26T08:59:03;4.20;;;1.20;;
7076;SDS011;3579;48.956;9.154;2024-02-26T09:01:30;1.47;;;1.10;;
7076;SDS011;3579;48.956;9.154;2024-02-26T09:03:57;1.30;;;1.00;;
7076;SDS011;3579;48.956;9.154;2024-02-26T09:14:52;3.47;;;1.30;;
7076;SDS011;3579;48.956;9.154;2024-02-26T09:17:19;1.13;;;1.00;;
7076;SDS011;3579;48.956;9.154;2024-02-26T09:19:45;2.10;;;1.00;;
7076;SDS011;3579;48.956;9.154;2024-02-26T09:22:11;1.60;;;1.27;;
7076;SDS011;3579;48.956;9.154;2024-02-26T09:24:37;1.30;;;1.07;;
7076;SDS011;3579;48.956;9.154;2024-02-26T09:27:04;1.40;;;1.03;;
7076;SDS011;3579;48.956;9.154;2024-02-26T09:29:30;2.13;;;1.10;;
7076;SDS011;3579;48.956;9.154;2024-02-26T09:31:56;1.73;;;1.20;;
7076;SDS011;3579;48.956;9.154;2024-02-26T09:34:22;1.43;;;1.10;;
7076;SDS011;3579;48.956;9.154;2024-02-26T09:36:48;2.00;;;1.40;;
7076;SDS011;3579;48.956;9.154;2024-02-26T09:39:14;3.77;;;1.40;;
7076;SDS011;3579;48.956;9.154;2024-02-26T09:41:45;4.00;;;1.87;;
7076;SDS011;3579;48.956;9.154;2024-02-26T09:44:12;4.33;;;1.60;;
7076;SDS011;3579;48.956;9.154;2024-02-26T09:46:43;2.23;;;1.43;;
7076;SDS011;3579;48.956;9.154;2024-02-26T09:49:10;2.37;;;1.63;;
7076;SDS011;3579;48.956;9.154;2024-02-26T09:51:38;4.53;;;1.77;;
7076;SDS011;3579;48.956;9.154;2024-02-26T09:54:05;3.10;;;1.43;;
7076;SDS011;3579;48.956;9.154;2024-02-26T09:56:36;1.90;;;1.30;;
7076;SDS011;3579;48.956;9.154;2024-02-26T09:59:05;3.60;;;1.60;;
7076;SDS011;3579;48.956;9.154;2024-02-26T10:01:36;3.03;;;1.87;;
7076;SDS011;3579;48.956;9.154;2024-02-26T10:04:04;1.77;;;1.40;;
7076;SDS011;3579;48.956;9.154;2024-02-26T10:06:30;2.35;;;1.30;;
7076;SDS011;3579;48.956;9.154;2024-02-26T10:08:56;3.75;;;1.60;;
7076;SDS011;3579;48.956;9.154;2024-02-26T10:11:25;1.80;;;1.40;;
7076;SDS011;3579;48.956;9.154;2024-02-26T10:13:52;2.30;;;1.57;;
7076;SDS011;3579;48.956;9.154;2024-02-26T10:16:19;1.77;;;1.40;;
7076;SDS011;3579;48.956;9.154;2024-02-26T10:18:51;2.70;;;1.40;;
7076;SDS011;3579;48.956;9.154;2024-02-26T10:21:22;3.23;;;1.50;;
7076;SDS011;3579;48.956;9.154;2024-02-26T10:23:48;2.00;;;1.47;;
7076;SDS011;3579;48.956;9.154;2024-02-26T10:26:16;2.00;;;1.70;;
7076;SDS011;3579;48.956;9.154;2024-02-26T10:28:43;2.53;;;1.70;;
7076;SDS011;3579;48.956;9.154;2024-02-26T10:31:10;3.90;;;1.57;;
7076;SDS011;3579;48.956;9.154;2024-02-26T10:33:37;1.50;;;1.30;;
7076;SDS011;3579;48.956;9.154;2024-02-26T10:36:04;4.57;;;1.90;;
7076;SDS011;3579;48.956;9.154;2024-02-26T10:38:34;2.30;;;1.77;;
7076;SDS011;3579;48.956;9.154;2024-02-26T10:41:01;4.37;;;1.60;;
7076;SDS011;3579;48.956;9.154;2024-02-26T10:43:48;3.57;;;1.47;;
7076;SDS011;3579;48.956;9.154;2024-02-26T10:46:14;2.03;;;1.47;;
7076;SDS011;3579;48.956;9.154;2024-02-26T10:48:40;3.10;;;1.57;;
7076;SDS011;3579;48.956;9.154;2024-02-26T10:51:14;3.30;;;1.60;;
7076;SDS011;3579;48.956;9.154;2024-02-26T10:53:41;3.83;;;1.60;;
7076;SDS011;3579;48.956;9.154;2024-02-26T10:58:45;5.17;;;2.10;;
7076;SDS011;3579;48.956;9.154;2024-02-26T11:01:12;5.03;;;2.03;;
7076;SDS011;3579;48.956;9.154;2024-02-26T11:03:38;4.93;;;1.87;;
7076;SDS011;3579;48.956;9.154;2024-02-26T11:06:06;8.37;;;1.83;;
7076;SDS011;3579;48.956;9.154;2024-02-26T11:08:33;3.07;;;1.80;;
7076;SDS011;3579;48.956;9.154;2024-02-26T11:11:00;3.33;;;1.80;;
7076;SDS011;3579;48.956;9.154;2024-02-26T11:13:28;2.10;;;1.67;;
7076;SDS011;3579;48.956;9.154;2024-02-26T11:15:55;5.47;;;1.87;;
7076;SDS011;3579;48.956;9.154;2024-02-26T11:18:23;3.23;;;1.70;;
7076;SDS011;3579;48.956;9.154;2024-02-26T11:20:50;2.73;;;1.70;;
7076;SDS011;3579;48.956;9.154;2024-02-26T11:23:17;4.17;;;1.83;;
7076;SDS011;3579;48.956;9.154;2024-02-26T11:25:43;4.63;;;1.90;;
7076;SDS011;3579;48.956;9.154;2024-02-26T11:28:11;5.83;;;2.00;;
7076;SDS011;3579;48.956;9.154;2024-02-26T11:30:41;3.20;;;1.53;;
7076;SDS011;3579;48.956;9.154;2024-02-26T11:33:11;2.90;;;2.00;;
7076;SDS011;3579;48.956;9.154;2024-02-26T11:35:38;3.73;;;1.90;;
7076;SDS011;3579;48.956;9.154;2024-02-26T11:38:04;2.10;;;1.60;;
7076;SDS011;3579;48.956;9.154;2024-02-26T11:40:33;2.03;;;1.47;;
7076;SDS011;3579;48.956;9.154;2024-02-26T11:43:04;2.50;;;1.80;;
7076;SDS011;3579;48.956;9.154;2024-02-26T11:48:15;3.00;;;1.70;;
7076;SDS011;3579;48.956;9.154;2024-02-26T11:50:47;3.80;;;1.77;;
7076;SDS011;3579;48.956;9.154;2024-02-26T11:53:31;5.20;;;1.77;;
7076;SDS011;3579;48.956;9.154;2024-02-26T11:58:41;4.93;;;1.70;;
7076;SDS011;3579;48.956;9.154;2024-02-26T12:06:42;2.40;;;1.60;;
7076;SDS011;3579;48.956;9.154;2024-02-26T12:09:37;2.63;;;1.60;;
7076;SDS011;3579;48.956;9.154;2024-02-26T12:12:04;2.87;;;1.67;;
7076;SDS011;3579;48.956;9.154;2024-02-26T12:14:50;2.03;;;1.60;;
7076;SDS011;3579;48.956;9.154;2024-02-26T12:17:23;2.20;;;1.50;;
7076;SDS011;3579;48.956;9.154;2024-02-26T12:19:51;3.17;;;2.10;;
7076;SDS011;3579;48.956;9.154;2024-02-26T12:22:19;2.83;;;1.70;;
7076;SDS011;3579;48.956;9.154;2024-02-26T12:24:45;2.07;;;1.50;;
7076;SDS011;3579;48.956;9.154;2024-02-26T12:27:11;3.40;;;1.70;;
7076;SDS011;3579;48.956;9.154;2024-02-26T12:29:39;2.97;;;1.80;;
7076;SDS011;3579;48.956;9.154;2024-02-26T12:32:05;2.47;;;1.70;;
7076;SDS011;3579;48.956;9.154;2024-02-26T12:34:32;2.77;;;1.50;;
7076;SDS011;3579;48.956;9.154;2024-02-26T12:36:58;2.43;;;1.70;;
7076;SDS011;3579;48.956;9.154;2024-02-26T12:39:24;2.63;;;1.77;;
7076;SDS011;3579;48.956;9.154;2024-02-26T12:41:51;2.97;;;1.60;;
7076;SDS011;3579;48.956;9.154;2024-02-26T12:44:17;3.67;;;1.53;;
7076;SDS011;3579;48.956;9.154;2024-02-26T12:46:44;3.38;;;1.90;;
7076;SDS011;3579;48.956;9.154;2024-02-26T12:49:16;3.53;;;1.47;;
7076;SDS011;3579;48.956;9.154;2024-02-26T12:51:46;1.97;;;1.57;;
7076;SDS011;3579;48.956;9.154;2024-02-26T12:54:13;2.77;;;1.73;;
7076;SDS011;3579;48.956;9.154;2024-02-26T12:56:40;2.87;;;1.60;;
7076;SDS011;3579;48.956;9.154;2024-02-26T12:59:07;3.20;;;1.40;;
7076;SDS011;3579;48.956;9.154;2024-02-26T13:01:34;4.43;;;1.70;;
7076;SDS011;3579;48.956;9.154;2024-02-26T13:04:00;2.40;;;1.60;;
7076;SDS011;3579;48.956;9.154;2024-02-26T13:06:32;2.50;;;1.40;;
7076;SDS011;3579;48.956;9.154;2024-02-26T13:09:00;3.22;;;1.60;;
7076;SDS011;3579;48.956;9.154;2024-02-26T13:11:28;2.93;;;1.50;;
7076;SDS011;3579;48.956;9.154;2024-02-26T13:13:55;5.53;;;1.70;;
7076;SDS011;3579;48.956;9.154;2024-02-26T13:16:23;3.67;;;1.50;;
7076;SDS011;3579;48.956;9.154;2024-02-26T13:18:50;2.07;;;1.60;;
7076;SDS011;3579;48.956;9.154;2024-02-26T13:21:17;2.40;;;1.80;;
7076;SDS011;3579;48.956;9.154;2024-02-26T13:23:48;2.97;;;1.30;;
7076;SDS011;3579;48.956;9.154;2024-02-26T13:26:16;2.60;;;1.70;;
7076;SDS011;3579;48.956;9.154;2024-02-26T13:28:42;3.37;;;1.80;;
7076;SDS011;3579;48.956;9.154;2024-02-26T13:31:08;3.50;;;2.10;;
7076;SDS011;3579;48.956;9.154;2024-02-26T13:33:35;6.50;;;2.03;;
7076;SDS011;3579;48.956;9.154;2024-02-26T13:36:01;4.73;;;1.90;;
7076;SDS011;3579;48.956;9.154;2024-02-26T13:38:28;2.80;;;1.80;;
7076;SDS011;3579;48.956;9.154;2024-02-26T13:40:54;4.68;;;1.88;;
7076;SDS011;3579;48.956;9.154;2024-02-26T13:43:21;6.90;;;2.00;;
7076;SDS011;3579;48.956;9.154;2024-02-26T13:45:47;3.70;;;1.90;;
7076;SDS011;3579;48.956;9.154;2024-02-26T13:48:14;4.57;;;2.10;;
7076;SDS011;3579;48.956;9.154;2024-02-26T13:50:41;2.40;;;1.70;;
7076;SDS011;3579;48.956;9.154;2024-02-26T13:53:11;4.10;;;1.67;;
7076;SDS011;3579;48.956;9.154;2024-02-26T13:55:38;3.43;;;2.23;;
7076;SDS011;3579;48.956;9.154;2024-02-26T13:58:06;4.60;;;1.70;;
7076;SDS011;3579;48.956;9.154;2024-02-26T14:00:32;2.53;;;1.73;;
7076;SDS011;3579;48.956;9.154;2024-02-26T14:03:00;6.00;;;1.60;;
7076;SDS011;3579;48.956;9.154;2024-02-26T14:05:29;4.97;;;1.90;;
7076;SDS011;3579;48.956;9.154;2024-02-26T14:07:55;2.93;;;1.53;;
7076;SDS011;3579;48.956;9.154;2024-02-26T14:10:21;4.07;;;1.80;;
7076;SDS011;3579;48.956;9.154;2024-02-26T14:12:47;2.93;;;1.80;;
7076;SDS011;3579;48.956;9.154;2024-02-26T14:15:14;2.77;;;1.70;;
7076;SDS011;3579;48.956;9.154;2024-02-26T14:17:40;3.53;;;1.70;;
7076;SDS011;3579;48.956;9.154;2024-02-26T14:20:06;2.50;;;1.90;;
7076;SDS011;3579;48.956;9.154;2024-02-26T14:22:34;3.00;;;1.53;;
7076;SDS011;3579;48.956;9.154;2024-02-26T14:25:00;2.30;;;1.47;;
7076;SDS011;3579;48.956;9.154;2024-02-26T14:27:26;2.77;;;1.87;;
7076;SDS011;3579;48.956;9.154;2024-02-26T14:29:52;2.53;;;1.90;;
7076;SDS011;3579;48.956;9.154;2024-02-26T14:32:20;2.73;;;1.87;;
7076;SDS011;3579;48.956;9.154;2024-02-26T14:34:46;2.77;;;1.53;;
7076;SDS011;3579;48.956;9.154;2024-02-26T14:37:12;2.73;;;1.90;;
7076;SDS011;3579;48.956;9.154;2024-02-26T14:39:38;2.37;;;1.50;;
7076;SDS011;3579;48.956;9.154;2024-02-26T14:42:04;2.70;;;1.63;;
7076;SDS011;3579;48.956;9.154;2024-02-26T14:44:31;2.53;;;1.60;;
7076;SDS011;3579;48.956;9.154;2024-02-26T14:46:57;2.50;;;1.57;;
7076;SDS011;3579;48.956;9.154;2024-02-26T14:49:23;3.07;;;1.90;;
7076;SDS011;3579;48.956;9.154;2024-02-26T14:51:50;1.80;;;1.50;;
7076;SDS011;3579;48.956;9.154;2024-02-26T14:54:16;1.80;;;1.50;;
7076;SDS011;3579;48.956;9.154;2024-02-26T14:56:42;2.00;;;1.40;;
7076;SDS011;3579;48.956;9.154;2024-02-26T14:59:08;2.67;;;1.80;;
7076;SDS011;3579;48.956;9.154;2024-02-26T15:01:34;2.10;;;1.47;;
7076;SDS011;3579;48.956;9.154;2024-02-26T15:04:01;3.03;;;1.80;;
7076;SDS011;3579;48.956;9.154;2024-02-26T15:06:27;2.70;;;1.60;;
7076;SDS011;3579;48.956;9.154;2024-02-26T15:08:53;1.77;;;1.40;;
7076;SDS011;3579;48.956;9.154;2024-02-26T15:11:19;3.50;;;1.60;;
7076;SDS011;3579;48.956;9.154;2024-02-26T15:13:45;2.67;;;1.80;;
7076;SDS011;3579;48.956;9.154;2024-02-26T15:16:20;3.40;;;1.70;;
7076;SDS011;3579;48.956;9.154;2024-02-26T15:18:46;2.03;;;1.50;;
7076;SDS011;3579;48.956;9.154;2024-02-26T15:21:13;2.00;;;1.40;;
7076;SDS011;3579;48.956;9.154;2024-02-26T15:23:42;3.13;;;1.67;;
7076;SDS011;3579;48.956;9.154;2024-02-26T15:26:10;1.83;;;1.60;;
7076;SDS011;3579;48.956;9.154;2024-02-26T15:28:36;2.93;;;1.53;;
7076;SDS011;3579;48.956;9.154;2024-02-26T15:31:02;2.23;;;1.50;;
7076;SDS011;3579;48.956;9.154;2024-02-26T15:33:28;1.90;;;1.40;;
7076;SDS011;3579;48.956;9.154;2024-02-26T15:35:54;2.33;;;1.50;;